sensor_id;sensor_type;location;lat;lon;timestamp;P1;durP1;ratioP1;P2;durP2;ratioP2
48524;SDS011;34316;51.514;-0.178;2023-12-29T00:00:22;62.97;;;41.60;;
48524;SDS011;34316;51.514;-0.178;2023-12-29T00:02:23;60.22;;;41.25;;
48524;SDS011;34316;51.514;-0.178;2023-12-29T00:04:26;63.30;;;39.60;;
48524;SDS011;34316;51.514;-0.178;2023-12-29T00:06:28;48.92;;;32.35;;
48524;SDS011;34316;51.514;-0.178;2023-12-29T00:08:30;40.38;;;27.30;;
48524;SDS011;34316;51.514;-0.178;2023-12-29T00:10:33;36.42;;;23.80;;
48524;SDS011;34316;51.514;-0.178;2023-12-29T00:12:35;40.55;;;25.08;;
48524;SDS011;34316;51.514;-0.178;2023-12-29T00:14:38;44.28;;;25.42;;
48524;SDS011;34316;51.514;-0.178;2023-12-29T00:18:43;44.63;;;29.48;;
48524;SDS011;34316;51.514;-0.178;2023-12-29T00:20:45;43.97;;;31.00;;
48524;SDS011;34316;51.514;-0.178;2023-12-29T00:22:47;48.38;;;31.30;;
48524;SDS011;34316;51.514;-0.178;2023-12-29T00:24:48;48.50;;;31.55;;
48524;SDS011;34316;51.514;-0.178;2023-12-29T00:26:50;44.60;;;30.83;;
48524;SDS011;34316;51.514;-0.178;2023-12-29T00:28:53;45.78;;;30.70;;
48524;SDS011;34316;51.514;-0.178;2023-12-29T00:30:55;45.42;;;30.27;;
48524;SDS011;34316;51.514;-0.178;2023-12-29T00:33:03;51.60;;;34.78;;
48524;SDS011;34316;51.514;-0.178;2023-12-29T00:35:06;58.67;;;37.63;;
48524;SDS011;34316;51.514;-0.178;2023-12-29T00:37:08;53.00;;;35.20;;
48524;SDS011;34316;51.514;-0.178;2023-12-29T00:39:10;59.00;;;36.50;;
48524;SDS011;34316;51.514;-0.178;2023-12-29T00:41:12;55.40;;;36.35;;
48524;SDS011;34316;51.514;-0.178;2023-12-29T00:43:14;60.17;;;35.47;;
48524;SDS011;34316;51.514;-0.178;2023-12-29T00:45:16;49.13;;;33.40;;
48524;SDS011;34316;51.514;-0.178;2023-12-29T00:47:18;45.03;;;30.20;;
48524;SDS011;34316;51.514;-0.178;2023-12-29T00:49:21;50.90;;;30.17;;
48524;SDS011;34316;51.514;-0.178;2023-12-29T00:51:23;46.95;;;30.38;;
48524;SDS011;34316;51.514;-0.178;2023-12-29T00:53:24;48.90;;;31.17;;
48524;SDS011;34316;51.514;-0.178;2023-12-29T00:55:26;48.53;;;31.58;;
48524;SDS011;34316;51.514;-0.178;2023-12-29T00:57:28;50.80;;;30.98;;
48524;SDS011;34316;51.514;-0.178;2023-12-29T00:59:30;55.92;;;33.22;;
48524;SDS011;34316;51.514;-0.178;2023-12-29T01:01:35;55.95;;;33.53;;
48524;SDS011;34316;51.514;-0.178;2023-12-29T01:03:37;56.80;;;35.53;;
48524;SDS011;34316;51.514;-0.178;2023-12-29T01:05:39;55.35;;;35.78;;
48524;SDS011;34316;51.514;-0.178;2023-12-29T01:07:41;55.92;;;35.22;;
48524;SDS011;34316;51.514;-0.178;2023-12-29T01:09:43;49.90;;;34.90;;
48524;SDS011;34316;51.514;-0.178;2023-12-29T01:11:45;52.65;;;33.40;;
48524;SDS011;34316;51.514;-0.178;2023-12-29T01:13:47;53.63;;;33.53;;
48524;SDS011;34316;51.514;-0.178;2023-12-29T01:15:49;52.88;;;34.58;;
48524;SDS011;34316;51.514;-0.178;2023-12-29T01:17:51;51.50;;;34.70;;
48524;SDS011;34316;51.514;-0.178;2023-12-29T01:19:52;49.83;;;36.22;;
48524;SDS011;34316;51.514;-0.178;2023-12-29T01:21:54;54.30;;;33.92;;
48524;SDS011;34316;51.514;-0.178;2023-12-29T01:23:56;57.20;;;36.20;;
48524;SDS011;34316;51.514;-0.178;2023-12-29T01:25:58;52.53;;;33.72;;
48524;SDS011;34316;51.514;-0.178;2023-12-29T01:28:00;53.65;;;36.15;;
48524;SDS011;34316;51.514;-0.178;2023-12-29T01:30:02;53.63;;;37.33;;
48524;SDS011;34316;51.514;-0.178;2023-12-29T01:32:04;58.17;;;40.97;;
48524;SDS011;34316;51.514;-0.178;2023-12-29T01:34:09;58.08;;;38.88;;
48524;SDS011;34316;51.514;-0.178;2023-12-29T01:36:17;60.28;;;43.47;;
48524;SDS011;34316;51.514;-0.178;2023-12-29T01:40:27;75.45;;;50.35;;
48524;SDS011;34316;51.514;-0.178;2023-12-29T01:42:29;76.25;;;52.58;;
48524;SDS011;34316;51.514;-0.178;2023-12-29T01:44:31;83.88;;;55.72;;
48524;SDS011;34316;51.514;-0.178;2023-12-29T01:46:33;82.47;;;56.67;;
48524;SDS011;34316;51.514;-0.178;2023-12-29T01:48:36;78.53;;;51.88;;
48524;SDS011;34316;51.514;-0.178;2023-12-29T01:50:38;67.72;;;48.17;;
48524;SDS011;34316;51.514;-0.178;2023-12-29T01:52:42;76.13;;;51.53;;
48524;SDS011;34316;51.514;-0.178;2023-12-29T01:54:47;73.63;;;49.17;;
48524;SDS011;34316;51.514;-0.178;2023-12-29T01:56:51;73.03;;;51.05;;
48524;SDS011;34316;51.514;-0.178;2023-12-29T01:58:55;76.85;;;53.80;;
48524;SDS011;34316;51.514;-0.178;2023-12-29T02:01:11;83.45;;;57.70;;
48524;SDS011;34316;51.514;-0.178;2023-12-29T02:03:13;76.45;;;54.30;;
48524;SDS011;34316;51.514;-0.178;2023-12-29T02:05:17;83.68;;;54.80;;
48524;SDS011;34316;51.514;-0.178;2023-12-29T02:07:19;74.40;;;53.28;;
48524;SDS011;34316;51.514;-0.178;2023-12-29T02:09:21;74.18;;;51.03;;
48524;SDS011;34316;51.514;-0.178;2023-12-29T02:11:23;72.88;;;49.72;;
48524;SDS011;34316;51.514;-0.178;2023-12-29T02:13:26;73.97;;;49.40;;
48524;SDS011;34316;51.514;-0.178;2023-12-29T02:15:28;69.88;;;48.75;;
48524;SDS011;34316;51.514;-0.178;2023-12-29T02:17:31;72.00;;;49.55;;
48524;SDS011;34316;51.514;-0.178;2023-12-29T02:19:38;69.15;;;49.55;;
48524;SDS011;34316;51.514;-0.178;2023-12-29T02:21:42;71.75;;;49.00;;
48524;SDS011;34316;51.514;-0.178;2023-12-29T02:23:44;63.60;;;46.17;;
48524;SDS011;34316;51.514;-0.178;2023-12-29T02:25:46;59.30;;;43.33;;
48524;SDS011;34316;51.514;-0.178;2023-12-29T02:30:28;59.70;;;39.53;;
48524;SDS011;34316;51.514;-0.178;2023-12-29T02:32:32;54.15;;;35.35;;
48524;SDS011;34316;51.514;-0.178;2023-12-29T02:34:35;48.90;;;33.60;;
48524;SDS011;34316;51.514;-0.178;2023-12-29T02:36:38;45.40;;;33.43;;
48524;SDS011;34316;51.514;-0.178;2023-12-29T02:38:44;50.45;;;34.22;;
48524;SDS011;34316;51.514;-0.178;2023-12-29T02:40:46;53.63;;;35.78;;
48524;SDS011;34316;51.514;-0.178;2023-12-29T02:42:48;51.50;;;35.92;;
48524;SDS011;34316;51.514;-0.178;2023-12-29T02:44:51;48.93;;;35.07;;
48524;SDS011;34316;51.514;-0.178;2023-12-29T02:46:52;51.00;;;35.58;;
48524;SDS011;34316;51.514;-0.178;2023-12-29T02:48:54;49.20;;;35.10;;
48524;SDS011;34316;51.514;-0.178;2023-12-29T02:50:56;51.42;;;36.78;;
48524;SDS011;34316;51.514;-0.178;2023-12-29T02:52:58;64.85;;;41.78;;
48524;SDS011;34316;51.514;-0.178;2023-12-29T02:55:00;57.47;;;38.17;;
48524;SDS011;34316;51.514;-0.178;2023-12-29T02:57:02;51.17;;;35.88;;
48524;SDS011;34316;51.514;-0.178;2023-12-29T02:59:04;50.13;;;35.50;;
48524;SDS011;34316;51.514;-0.178;2023-12-29T03:01:06;52.00;;;36.95;;
48524;SDS011;34316;51.514;-0.178;2023-12-29T03:03:08;66.78;;;46.00;;
48524;SDS011;34316;51.514;-0.178;2023-12-29T03:05:10;63.50;;;45.05;;
48524;SDS011;34316;51.514;-0.178;2023-12-29T03:07:12;82.82;;;58.67;;
48524;SDS011;34316;51.514;-0.178;2023-12-29T03:09:14;103.45;;;68.40;;
48524;SDS011;34316;51.514;-0.178;2023-12-29T03:11:15;99.13;;;71.38;;
48524;SDS011;34316;51.514;-0.178;2023-12-29T03:13:17;105.45;;;74.22;;
48524;SDS011;34316;51.514;-0.178;2023-12-29T03:15:19;108.82;;;74.10;;
48524;SDS011;34316;51.514;-0.178;2023-12-29T03:17:21;98.97;;;70.38;;
48524;SDS011;34316;51.514;-0.178;2023-12-29T03:19:23;97.22;;;66.38;;
48524;SDS011;34316;51.514;-0.178;2023-12-29T03:21:25;96.63;;;68.47;;
48524;SDS011;34316;51.514;-0.178;2023-12-29T03:23:27;99.00;;;67.63;;
48524;SDS011;34316;51.514;-0.178;2023-12-29T03:25:29;108.55;;;74.18;;
48524;SDS011;34316;51.514;-0.178;2023-12-29T03:27:31;95.03;;;65.78;;
48524;SDS011;34316;51.514;-0.178;2023-12-29T03:29:33;98.43;;;64.78;;
48524;SDS011;34316;51.514;-0.178;2023-12-29T03:31:34;86.00;;;60.38;;
48524;SDS011;34316;51.514;-0.178;2023-12-29T03:33:36;80.82;;;54.97;;
48524;SDS011;34316;51.514;-0.178;2023-12-29T03:35:38;79.07;;;53.83;;
48524;SDS011;34316;51.514;-0.178;2023-12-29T03:37:40;84.20;;;59.05;;
48524;SDS011;34316;51.514;-0.178;2023-12-29T03:39:42;82.53;;;56.35;;
48524;SDS011;34316;51.514;-0.178;2023-12-29T03:41:45;73.53;;;53.53;;
48524;SDS011;34316;51.514;-0.178;2023-12-29T03:43:47;72.18;;;50.17;;
48524;SDS011;34316;51.514;-0.178;2023-12-29T03:45:49;67.72;;;48.42;;
48524;SDS011;34316;51.514;-0.178;2023-12-29T03:47:50;82.90;;;51.63;;
48524;SDS011;34316;51.514;-0.178;2023-12-29T03:49:52;75.00;;;50.90;;
48524;SDS011;34316;51.514;-0.178;2023-12-29T03:51:54;77.53;;;56.17;;
48524;SDS011;34316;51.514;-0.178;2023-12-29T03:53:56;83.78;;;55.28;;
48524;SDS011;34316;51.514;-0.178;2023-12-29T03:56:03;82.80;;;57.90;;
48524;SDS011;34316;51.514;-0.178;2023-12-29T03:58:10;84.38;;;56.13;;
48524;SDS011;34316;51.514;-0.178;2023-12-29T04:00:12;86.28;;;61.53;;
48524;SDS011;34316;51.514;-0.178;2023-12-29T04:02:15;85.75;;;59.45;;
48524;SDS011;34316;51.514;-0.178;2023-12-29T04:04:18;85.38;;;58.58;;
48524;SDS011;34316;51.514;-0.178;2023-12-29T04:06:20;75.47;;;55.38;;
48524;SDS011;34316;51.514;-0.178;2023-12-29T04:08:22;79.57;;;54.58;;
48524;SDS011;34316;51.514;-0.178;2023-12-29T04:10:24;77.40;;;55.22;;
48524;SDS011;34316;51.514;-0.178;2023-12-29T04:12:26;81.32;;;56.15;;
48524;SDS011;34316;51.514;-0.178;2023-12-29T04:14:28;80.50;;;55.70;;
48524;SDS011;34316;51.514;-0.178;2023-12-29T04:16:30;81.38;;;54.42;;
48524;SDS011;34316;51.514;-0.178;2023-12-29T04:18:32;72.13;;;52.70;;
48524;SDS011;34316;51.514;-0.178;2023-12-29T04:20:34;79.22;;;54.83;;
48524;SDS011;34316;51.514;-0.178;2023-12-29T04:22:36;74.10;;;54.88;;
48524;SDS011;34316;51.514;-0.178;2023-12-29T04:24:38;74.88;;;52.83;;
48524;SDS011;34316;51.514;-0.178;2023-12-29T04:26:40;81.00;;;55.13;;
48524;SDS011;34316;51.514;-0.178;2023-12-29T04:28:42;73.53;;;52.35;;
48524;SDS011;34316;51.514;-0.178;2023-12-29T04:30:44;75.68;;;53.10;;
48524;SDS011;34316;51.514;-0.178;2023-12-29T04:32:46;78.30;;;53.83;;
48524;SDS011;34316;51.514;-0.178;2023-12-29T04:34:48;73.30;;;52.45;;
48524;SDS011;34316;51.514;-0.178;2023-12-29T04:36:50;82.82;;;54.80;;
48524;SDS011;34316;51.514;-0.178;2023-12-29T04:38:51;81.82;;;58.15;;
48524;SDS011;34316;51.514;-0.178;2023-12-29T04:40:53;76.75;;;55.95;;
48524;SDS011;34316;51.514;-0.178;2023-12-29T04:42:55;74.43;;;54.22;;
48524;SDS011;34316;51.514;-0.178;2023-12-29T04:44:57;72.03;;;52.00;;
48524;SDS011;34316;51.514;-0.178;2023-12-29T04:46:59;66.43;;;44.13;;
48524;SDS011;34316;51.514;-0.178;2023-12-29T04:49:01;65.60;;;48.28;;
48524;SDS011;34316;51.514;-0.178;2023-12-29T04:51:03;72.10;;;49.70;;
48524;SDS011;34316;51.514;-0.178;2023-12-29T04:53:05;70.05;;;47.88;;
48524;SDS011;34316;51.514;-0.178;2023-12-29T04:55:07;78.32;;;51.90;;
48524;SDS011;34316;51.514;-0.178;2023-12-29T04:57:09;72.57;;;52.05;;
48524;SDS011;34316;51.514;-0.178;2023-12-29T04:59:11;79.38;;;53.65;;
48524;SDS011;34316;51.514;-0.178;2023-12-29T05:01:12;67.85;;;50.72;;
48524;SDS011;34316;51.514;-0.178;2023-12-29T05:03:14;65.13;;;48.10;;
48524;SDS011;34316;51.514;-0.178;2023-12-29T05:05:16;67.50;;;46.63;;
48524;SDS011;34316;51.514;-0.178;2023-12-29T05:07:18;64.00;;;46.75;;
48524;SDS011;34316;51.514;-0.178;2023-12-29T05:09:20;62.08;;;46.80;;
48524;SDS011;34316;51.514;-0.178;2023-12-29T05:11:22;62.58;;;45.58;;
48524;SDS011;34316;51.514;-0.178;2023-12-29T05:13:24;75.38;;;49.70;;
48524;SDS011;34316;51.514;-0.178;2023-12-29T05:15:26;63.92;;;46.08;;
48524;SDS011;34316;51.514;-0.178;2023-12-29T05:17:27;65.22;;;45.53;;
48524;SDS011;34316;51.514;-0.178;2023-12-29T05:19:29;68.38;;;51.00;;
48524;SDS011;34316;51.514;-0.178;2023-12-29T05:21:31;72.45;;;51.25;;
48524;SDS011;34316;51.514;-0.178;2023-12-29T05:23:33;73.10;;;53.70;;
48524;SDS011;34316;51.514;-0.178;2023-12-29T05:25:35;75.18;;;51.83;;
48524;SDS011;34316;51.514;-0.178;2023-12-29T05:27:37;75.07;;;53.45;;
48524;SDS011;34316;51.514;-0.178;2023-12-29T05:29:39;73.93;;;55.13;;
48524;SDS011;34316;51.514;-0.178;2023-12-29T05:31:41;84.25;;;58.40;;
48524;SDS011;34316;51.514;-0.178;2023-12-29T05:33:44;94.63;;;61.33;;
48524;SDS011;34316;51.514;-0.178;2023-12-29T05:35:46;93.30;;;62.95;;
48524;SDS011;34316;51.514;-0.178;2023-12-29T05:37:48;93.38;;;63.75;;
48524;SDS011;34316;51.514;-0.178;2023-12-29T05:39:51;103.63;;;70.47;;
48524;SDS011;34316;51.514;-0.178;2023-12-29T05:41:53;96.85;;;67.18;;
48524;SDS011;34316;51.514;-0.178;2023-12-29T05:43:55;94.85;;;67.22;;
48524;SDS011;34316;51.514;-0.178;2023-12-29T05:45:59;102.25;;;68.57;;
48524;SDS011;34316;51.514;-0.178;2023-12-29T05:48:01;104.03;;;68.32;;
48524;SDS011;34316;51.514;-0.178;2023-12-29T05:50:04;103.97;;;66.22;;
48524;SDS011;34316;51.514;-0.178;2023-12-29T05:52:06;93.22;;;64.35;;
48524;SDS011;34316;51.514;-0.178;2023-12-29T05:54:08;91.13;;;60.78;;
48524;SDS011;34316;51.514;-0.178;2023-12-29T05:56:13;89.65;;;63.05;;
48524;SDS011;34316;51.514;-0.178;2023-12-29T05:58:15;91.00;;;62.42;;
48524;SDS011;34316;51.514;-0.178;2023-12-29T06:00:18;90.10;;;64.28;;
48524;SDS011;34316;51.514;-0.178;2023-12-29T06:02:20;96.22;;;64.40;;
48524;SDS011;34316;51.514;-0.178;2023-12-29T06:04:21;92.22;;;64.35;;
48524;SDS011;34316;51.514;-0.178;2023-12-29T06:06:23;93.63;;;64.50;;
48524;SDS011;34316;51.514;-0.178;2023-12-29T06:08:25;93.30;;;65.35;;
48524;SDS011;34316;51.514;-0.178;2023-12-29T06:10:27;88.10;;;61.40;;
48524;SDS011;34316;51.514;-0.178;2023-12-29T06:12:29;89.78;;;63.25;;
48524;SDS011;34316;51.514;-0.178;2023-12-29T06:14:31;91.10;;;61.83;;
48524;SDS011;34316;51.514;-0.178;2023-12-29T06:16:33;87.90;;;62.75;;
48524;SDS011;34316;51.514;-0.178;2023-12-29T06:18:35;96.90;;;64.40;;
48524;SDS011;34316;51.514;-0.178;2023-12-29T06:20:37;97.15;;;63.28;;
48524;SDS011;34316;51.514;-0.178;2023-12-29T06:22:39;93.05;;;62.55;;
48524;SDS011;34316;51.514;-0.178;2023-12-29T06:24:42;87.95;;;64.28;;
48524;SDS011;34316;51.514;-0.178;2023-12-29T06:26:44;92.70;;;65.00;;
48524;SDS011;34316;51.514;-0.178;2023-12-29T06:28:46;98.35;;;66.53;;
48524;SDS011;34316;51.514;-0.178;2023-12-29T06:30:48;99.25;;;69.05;;
48524;SDS011;34316;51.514;-0.178;2023-12-29T06:32:50;90.10;;;63.55;;
48524;SDS011;34316;51.514;-0.178;2023-12-29T06:34:53;97.13;;;65.18;;
48524;SDS011;34316;51.514;-0.178;2023-12-29T06:36:55;91.32;;;64.28;;
48524;SDS011;34316;51.514;-0.178;2023-12-29T06:38:57;90.03;;;63.17;;
48524;SDS011;34316;51.514;-0.178;2023-12-29T06:41:02;96.68;;;67.22;;
48524;SDS011;34316;51.514;-0.178;2023-12-29T06:43:05;85.90;;;58.53;;
48524;SDS011;34316;51.514;-0.178;2023-12-29T06:45:07;83.10;;;57.15;;
48524;SDS011;34316;51.514;-0.178;2023-12-29T06:47:10;83.28;;;57.65;;
48524;SDS011;34316;51.514;-0.178;2023-12-29T06:49:13;85.18;;;57.60;;
48524;SDS011;34316;51.514;-0.178;2023-12-29T06:51:18;83.88;;;59.28;;
48524;SDS011;34316;51.514;-0.178;2023-12-29T06:53:20;87.90;;;59.67;;
48524;SDS011;34316;51.514;-0.178;2023-12-29T06:55:22;88.30;;;58.90;;
48524;SDS011;34316;51.514;-0.178;2023-12-29T06:57:23;88.30;;;60.70;;
48524;SDS011;34316;51.514;-0.178;2023-12-29T06:59:26;123.38;;;75.03;;
48524;SDS011;34316;51.514;-0.178;2023-12-29T07:01:31;105.05;;;68.43;;
48524;SDS011;34316;51.514;-0.178;2023-12-29T07:03:33;107.50;;;66.80;;
48524;SDS011;34316;51.514;-0.178;2023-12-29T07:05:34;102.72;;;69.55;;
48524;SDS011;34316;51.514;-0.178;2023-12-29T07:07:36;110.30;;;69.28;;
48524;SDS011;34316;51.514;-0.178;2023-12-29T07:09:48;100.00;;;68.10;;
48524;SDS011;34316;51.514;-0.178;2023-12-29T07:11:50;100.95;;;68.97;;
48524;SDS011;34316;51.514;-0.178;2023-12-29T07:13:52;99.43;;;66.68;;
48524;SDS011;34316;51.514;-0.178;2023-12-29T07:15:55;95.78;;;63.28;;
48524;SDS011;34316;51.514;-0.178;2023-12-29T07:17:57;93.32;;;64.55;;
48524;SDS011;34316;51.514;-0.178;2023-12-29T07:20:00;90.18;;;62.00;;
48524;SDS011;34316;51.514;-0.178;2023-12-29T07:22:05;98.05;;;66.32;;
48524;SDS011;34316;51.514;-0.178;2023-12-29T07:24:07;98.10;;;64.78;;
48524;SDS011;34316;51.514;-0.178;2023-12-29T07:26:09;96.57;;;62.45;;
48524;SDS011;34316;51.514;-0.178;2023-12-29T07:28:11;99.45;;;65.85;;
48524;SDS011;34316;51.514;-0.178;2023-12-29T07:30:13;100.40;;;67.28;;
48524;SDS011;34316;51.514;-0.178;2023-12-29T07:32:15;100.40;;;67.45;;
48524;SDS011;34316;51.514;-0.178;2023-12-29T07:34:17;99.35;;;66.72;;
48524;SDS011;34316;51.514;-0.178;2023-12-29T07:36:20;100.15;;;64.75;;
48524;SDS011;34316;51.514;-0.178;2023-12-29T07:38:21;90.47;;;63.58;;
48524;SDS011;34316;51.514;-0.178;2023-12-29T07:40:23;87.65;;;59.40;;
48524;SDS011;34316;51.514;-0.178;2023-12-29T07:42:25;96.72;;;66.25;;
48524;SDS011;34316;51.514;-0.178;2023-12-29T07:44:27;88.30;;;60.70;;
48524;SDS011;34316;51.514;-0.178;2023-12-29T07:46:29;93.93;;;63.95;;
48524;SDS011;34316;51.514;-0.178;2023-12-29T07:48:31;91.18;;;63.80;;
48524;SDS011;34316;51.514;-0.178;2023-12-29T07:50:33;101.68;;;67.57;;
48524;SDS011;34316;51.514;-0.178;2023-12-29T07:52:34;97.63;;;65.05;;
48524;SDS011;34316;51.514;-0.178;2023-12-29T07:54:36;100.72;;;66.57;;
48524;SDS011;34316;51.514;-0.178;2023-12-29T07:56:38;103.05;;;71.55;;
48524;SDS011;34316;51.514;-0.178;2023-12-29T07:58:40;111.05;;;74.82;;
48524;SDS011;34316;51.514;-0.178;2023-12-29T08:00:46;101.63;;;68.65;;
48524;SDS011;34316;51.514;-0.178;2023-12-29T08:02:49;105.00;;;70.78;;
48524;SDS011;34316;51.514;-0.178;2023-12-29T08:04:51;108.32;;;71.50;;
48524;SDS011;34316;51.514;-0.178;2023-12-29T08:06:53;104.63;;;69.68;;
48524;SDS011;34316;51.514;-0.178;2023-12-29T08:08:55;99.07;;;67.97;;
48524;SDS011;34316;51.514;-0.178;2023-12-29T08:10:57;93.80;;;64.85;;
48524;SDS011;34316;51.514;-0.178;2023-12-29T08:12:59;108.57;;;69.28;;
48524;SDS011;34316;51.514;-0.178;2023-12-29T08:15:01;96.47;;;66.15;;
48524;SDS011;34316;51.514;-0.178;2023-12-29T08:17:04;98.38;;;65.30;;
48524;SDS011;34316;51.514;-0.178;2023-12-29T08:19:05;111.43;;;69.72;;
48524;SDS011;34316;51.514;-0.178;2023-12-29T08:21:08;102.60;;;68.75;;
48524;SDS011;34316;51.514;-0.178;2023-12-29T08:23:10;96.28;;;68.07;;
48524;SDS011;34316;51.514;-0.178;2023-12-29T08:25:12;94.78;;;66.47;;
48524;SDS011;34316;51.514;-0.178;2023-12-29T08:27:14;94.47;;;65.82;;
48524;SDS011;34316;51.514;-0.178;2023-12-29T08:29:16;96.82;;;64.47;;
48524;SDS011;34316;51.514;-0.178;2023-12-29T08:31:18;97.15;;;65.15;;
48524;SDS011;34316;51.514;-0.178;2023-12-29T08:33:20;94.03;;;66.00;;
48524;SDS011;34316;51.514;-0.178;2023-12-29T08:35:22;102.18;;;68.55;;
48524;SDS011;34316;51.514;-0.178;2023-12-29T08:37:24;106.72;;;69.93;;
48524;SDS011;34316;51.514;-0.178;2023-12-29T08:39:26;117.05;;;72.38;;
48524;SDS011;34316;51.514;-0.178;2023-12-29T08:41:28;114.88;;;68.97;;
48524;SDS011;34316;51.514;-0.178;2023-12-29T08:43:30;104.30;;;68.75;;
48524;SDS011;34316;51.514;-0.178;2023-12-29T08:45:31;105.40;;;69.15;;
48524;SDS011;34316;51.514;-0.178;2023-12-29T08:47:34;116.60;;;70.15;;
48524;SDS011;34316;51.514;-0.178;2023-12-29T08:49:36;105.88;;;67.78;;
48524;SDS011;34316;51.514;-0.178;2023-12-29T08:51:39;111.47;;;67.65;;
48524;SDS011;34316;51.514;-0.178;2023-12-29T08:53:41;116.15;;;67.53;;
48524;SDS011;34316;51.514;-0.178;2023-12-29T08:55:42;99.28;;;64.63;;
48524;SDS011;34316;51.514;-0.178;2023-12-29T08:57:44;101.80;;;63.50;;
48524;SDS011;34316;51.514;-0.178;2023-12-29T08:59:46;100.82;;;63.72;;
48524;SDS011;34316;51.514;-0.178;2023-12-29T09:01:49;98.65;;;64.38;;
48524;SDS011;34316;51.514;-0.178;2023-12-29T09:03:51;104.57;;;63.10;;
48524;SDS011;34316;51.514;-0.178;2023-12-29T09:05:53;95.07;;;62.63;;
48524;SDS011;34316;51.514;-0.178;2023-12-29T09:07:55;107.63;;;63.25;;
48524;SDS011;34316;51.514;-0.178;2023-12-29T09:09:58;88.40;;;62.50;;
48524;SDS011;34316;51.514;-0.178;2023-12-29T09:12:00;97.50;;;60.40;;
48524;SDS011;34316;51.514;-0.178;2023-12-29T09:14:03;84.22;;;57.45;;
48524;SDS011;34316;51.514;-0.178;2023-12-29T09:16:05;89.32;;;56.58;;
48524;SDS011;34316;51.514;-0.178;2023-12-29T09:18:07;93.88;;;59.95;;
48524;SDS011;34316;51.514;-0.178;2023-12-29T09:20:09;87.63;;;57.42;;
48524;SDS011;34316;51.514;-0.178;2023-12-29T09:22:12;83.90;;;56.08;;
48524;SDS011;34316;51.514;-0.178;2023-12-29T09:24:14;76.70;;;52.03;;
48524;SDS011;34316;51.514;-0.178;2023-12-29T09:26:16;80.80;;;52.80;;
48524;SDS011;34316;51.514;-0.178;2023-12-29T09:28:18;77.20;;;52.03;;
48524;SDS011;34316;51.514;-0.178;2023-12-29T09:30:20;73.28;;;50.03;;
48524;SDS011;34316;51.514;-0.178;2023-12-29T09:32:22;74.07;;;49.92;;
48524;SDS011;34316;51.514;-0.178;2023-12-29T09:34:24;70.07;;;51.20;;
48524;SDS011;34316;51.514;-0.178;2023-12-29T09:36:26;71.07;;;48.28;;
48524;SDS011;34316;51.514;-0.178;2023-12-29T09:38:28;72.03;;;47.45;;
48524;SDS011;34316;51.514;-0.178;2023-12-29T09:40:30;78.43;;;52.75;;
48524;SDS011;34316;51.514;-0.178;2023-12-29T09:42:32;77.03;;;51.75;;
48524;SDS011;34316;51.514;-0.178;2023-12-29T09:44:35;76.20;;;49.30;;
48524;SDS011;34316;51.514;-0.178;2023-12-29T09:46:38;69.13;;;46.67;;
48524;SDS011;34316;51.514;-0.178;2023-12-29T09:48:40;69.03;;;44.83;;
48524;SDS011;34316;51.514;-0.178;2023-12-29T09:50:46;62.50;;;43.30;;
48524;SDS011;34316;51.514;-0.178;2023-12-29T09:52:49;71.18;;;49.53;;
48524;SDS011;34316;51.514;-0.178;2023-12-29T09:54:52;79.28;;;53.20;;
48524;SDS011;34316;51.514;-0.178;2023-12-29T09:56:54;78.40;;;53.22;;
48524;SDS011;34316;51.514;-0.178;2023-12-29T09:58:56;78.47;;;53.00;;
48524;SDS011;34316;51.514;-0.178;2023-12-29T10:00:59;71.65;;;51.90;;
48524;SDS011;34316;51.514;-0.178;2023-12-29T10:05:05;79.38;;;46.40;;
48524;SDS011;34316;51.514;-0.178;2023-12-29T10:07:08;69.97;;;49.65;;
48524;SDS011;34316;51.514;-0.178;2023-12-29T10:09:22;72.28;;;49.05;;
48524;SDS011;34316;51.514;-0.178;2023-12-29T10:11:25;72.75;;;49.38;;
48524;SDS011;34316;51.514;-0.178;2023-12-29T10:13:28;72.28;;;49.47;;
48524;SDS011;34316;51.514;-0.178;2023-12-29T10:15:51;62.58;;;44.72;;
48524;SDS011;34316;51.514;-0.178;2023-12-29T10:20:30;64.23;;;43.63;;
48524;SDS011;34316;51.514;-0.178;2023-12-29T10:23:05;70.05;;;45.00;;
48524;SDS011;34316;51.514;-0.178;2023-12-29T10:25:06;61.17;;;43.92;;
48524;SDS011;34316;51.514;-0.178;2023-12-29T10:27:09;64.20;;;43.20;;
48524;SDS011;34316;51.514;-0.178;2023-12-29T10:29:14;71.53;;;44.08;;
48524;SDS011;34316;51.514;-0.178;2023-12-29T10:31:18;65.63;;;43.42;;
48524;SDS011;34316;51.514;-0.178;2023-12-29T10:33:20;58.92;;;42.58;;
48524;SDS011;34316;51.514;-0.178;2023-12-29T10:35:26;64.88;;;42.63;;
48524;SDS011;34316;51.514;-0.178;2023-12-29T10:37:29;63.25;;;43.78;;
48524;SDS011;34316;51.514;-0.178;2023-12-29T10:39:30;63.03;;;44.08;;
48524;SDS011;34316;51.514;-0.178;2023-12-29T10:41:32;68.03;;;43.92;;
48524;SDS011;34316;51.514;-0.178;2023-12-29T10:43:34;67.53;;;42.58;;
48524;SDS011;34316;51.514;-0.178;2023-12-29T10:45:36;62.30;;;41.25;;
48524;SDS011;34316;51.514;-0.178;2023-12-29T10:47:38;59.58;;;40.58;;
48524;SDS011;34316;51.514;-0.178;2023-12-29T10:49:45;63.40;;;43.78;;
48524;SDS011;34316;51.514;-0.178;2023-12-29T10:51:47;62.92;;;44.15;;
48524;SDS011;34316;51.514;-0.178;2023-12-29T10:53:54;65.43;;;42.10;;
48524;SDS011;34316;51.514;-0.178;2023-12-29T10:55:58;56.05;;;40.95;;
48524;SDS011;34316;51.514;-0.178;2023-12-29T10:58:00;58.80;;;41.47;;
48524;SDS011;34316;51.514;-0.178;2023-12-29T11:00:02;56.33;;;40.00;;
48524;SDS011;34316;51.514;-0.178;2023-12-29T11:02:05;61.07;;;42.10;;
48524;SDS011;34316;51.514;-0.178;2023-12-29T11:04:10;55.25;;;42.47;;
48524;SDS011;34316;51.514;-0.178;2023-12-29T11:06:13;67.43;;;45.27;;
48524;SDS011;34316;51.514;-0.178;2023-12-29T11:08:18;62.17;;;43.03;;
48524;SDS011;34316;51.514;-0.178;2023-12-29T11:10:21;62.47;;;43.42;;
48524;SDS011;34316;51.514;-0.178;2023-12-29T11:12:24;67.27;;;43.83;;
48524;SDS011;34316;51.514;-0.178;2023-12-29T11:14:26;67.03;;;43.83;;
48524;SDS011;34316;51.514;-0.178;2023-12-29T11:16:29;65.13;;;46.50;;
48524;SDS011;34316;51.514;-0.178;2023-12-29T11:18:33;69.03;;;49.90;;
48524;SDS011;34316;51.514;-0.178;2023-12-29T11:20:35;68.43;;;50.80;;
48524;SDS011;34316;51.514;-0.178;2023-12-29T11:22:37;73.95;;;52.35;;
48524;SDS011;34316;51.514;-0.178;2023-12-29T11:24:39;84.25;;;51.65;;
48524;SDS011;34316;51.514;-0.178;2023-12-29T11:26:44;76.10;;;50.40;;
48524;SDS011;34316;51.514;-0.178;2023-12-29T11:28:46;72.88;;;52.58;;
48524;SDS011;34316;51.514;-0.178;2023-12-29T11:30:49;73.13;;;50.60;;
48524;SDS011;34316;51.514;-0.178;2023-12-29T11:32:54;73.03;;;50.45;;
48524;SDS011;34316;51.514;-0.178;2023-12-29T11:35:18;73.57;;;50.08;;
48524;SDS011;34316;51.514;-0.178;2023-12-29T11:39:42;83.68;;;57.95;;
48524;SDS011;34316;51.514;-0.178;2023-12-29T11:44:28;87.22;;;57.75;;
48524;SDS011;34316;51.514;-0.178;2023-12-29T11:46:38;86.18;;;52.90;;
48524;SDS011;34316;51.514;-0.178;2023-12-29T11:48:56;69.95;;;52.42;;
48524;SDS011;34316;51.514;-0.178;2023-12-29T11:50:59;85.85;;;54.40;;
48524;SDS011;34316;51.514;-0.178;2023-12-29T11:53:01;77.70;;;55.38;;
48524;SDS011;34316;51.514;-0.178;2023-12-29T11:55:13;83.75;;;56.67;;
48524;SDS011;34316;51.514;-0.178;2023-12-29T11:57:31;78.57;;;53.08;;
48524;SDS011;34316;51.514;-0.178;2023-12-29T11:59:35;74.78;;;54.70;;
48524;SDS011;34316;51.514;-0.178;2023-12-29T12:01:51;76.05;;;54.13;;
48524;SDS011;34316;51.514;-0.178;2023-12-29T12:03:55;76.00;;;54.28;;